sensor_id;sensor_type;location;lat;lon;timestamp;P1;durP1;ratioP1;P2;durP2;ratioP2
11042;SDS011;5574;48.786;10.120;2024-01-27T00:02:22;4.77;;;2.77;;
11042;SDS011;5574;48.786;10.120;2024-01-27T00:04:49;4.00;;;2.50;;
11042;SDS011;5574;48.786;10.120;2024-01-27T00:07:16;3.23;;;2.73;;
11042;SDS011;5574;48.786;10.120;2024-01-27T00:09:43;6.83;;;4.47;;
11042;SDS011;5574;48.786;10.120;2024-01-27T00:12:09;7.77;;;5.20;;
11042;SDS011;5574;48.786;10.120;2024-01-27T00:14:37;3.67;;;3.13;;
11042;SDS011;5574;48.786;10.120;2024-01-27T00:17:04;4.00;;;2.60;;
11042;SDS011;5574;48.786;10.120;2024-01-27T00:19:33;3.30;;;2.43;;
11042;SDS011;5574;48.786;10.120;2024-01-27T00:21:59;3.90;;;2.47;;
11042;SDS011;5574;48.786;10.120;2024-01-27T00:24:26;4.00;;;2.30;;
11042;SDS011;5574;48.786;10.120;2024-01-27T00:26:53;4.73;;;2.53;;
11042;SDS011;5574;48.786;10.120;2024-01-27T00:29:19;3.57;;;2.50;;
11042;SDS011;5574;48.786;10.120;2024-01-27T00:31:46;3.43;;;2.33;;
11042;SDS011;5574;48.786;10.120;2024-01-27T00:34:14;5.10;;;2.67;;
11042;SDS011;5574;48.786;10.120;2024-01-27T00:36:43;3.63;;;2.40;;
11042;SDS011;5574;48.786;10.120;2024-01-27T00:39:13;2.50;;;2.27;;
11042;SDS011;5574;48.786;10.120;2024-01-27T00:41:40;5.20;;;2.60;;
11042;SDS011;5574;48.786;10.120;2024-01-27T00:44:07;3.27;;;2.10;;
11042;SDS011;5574;48.786;10.120;2024-01-27T00:46:34;4.00;;;2.40;;
11042;SDS011;5574;48.786;10.120;2024-01-27T00:49:00;2.70;;;2.20;;
11042;SDS011;5574;48.786;10.120;2024-01-27T00:51:27;2.30;;;2.07;;
11042;SDS011;5574;48.786;10.120;2024-01-27T00:53:55;2.53;;;2.30;;
11042;SDS011;5574;48.786;10.120;2024-01-27T00:56:22;2.50;;;2.30;;
11042;SDS011;5574;48.786;10.120;2024-01-27T00:58:48;3.57;;;2.20;;
11042;SDS011;5574;48.786;10.120;2024-01-27T01:01:15;4.20;;;2.23;;
11042;SDS011;5574;48.786;10.120;2024-01-27T01:03:42;4.93;;;2.30;;
11042;SDS011;5574;48.786;10.120;2024-01-27T01:06:09;2.63;;;2.00;;
11042;SDS011;5574;48.786;10.120;2024-01-27T01:08:36;2.30;;;2.10;;
11042;SDS011;5574;48.786;10.120;2024-01-27T01:11:04;2.53;;;2.27;;
11042;SDS011;5574;48.786;10.120;2024-01-27T01:13:31;4.17;;;2.30;;
11042;SDS011;5574;48.786;10.120;2024-01-27T01:15:57;3.73;;;2.43;;
11042;SDS011;5574;48.786;10.120;2024-01-27T01:18:24;2.43;;;2.10;;
11042;SDS011;5574;48.786;10.120;2024-01-27T01:20:51;2.83;;;2.10;;
11042;SDS011;5574;48.786;10.120;2024-01-27T01:23:17;3.50;;;2.20;;
11042;SDS011;5574;48.786;10.120;2024-01-27T01:25:44;4.73;;;2.20;;
11042;SDS011;5574;48.786;10.120;2024-01-27T01:28:12;3.53;;;1.97;;
11042;SDS011;5574;48.786;10.120;2024-01-27T01:30:39;2.30;;;2.10;;
11042;SDS011;5574;48.786;10.120;2024-01-27T01:33:05;2.53;;;2.10;;
11042;SDS011;5574;48.786;10.120;2024-01-27T01:35:32;4.23;;;2.40;;
11042;SDS011;5574;48.786;10.120;2024-01-27T01:37:59;2.93;;;2.17;;
11042;SDS011;5574;48.786;10.120;2024-01-27T01:40:26;2.20;;;2.00;;
11042;SDS011;5574;48.786;10.120;2024-01-27T01:42:52;2.20;;;2.00;;
11042;SDS011;5574;48.786;10.120;2024-01-27T01:45:20;3.73;;;2.30;;
11042;SDS011;5574;48.786;10.120;2024-01-27T01:47:47;3.00;;;2.03;;
11042;SDS011;5574;48.786;10.120;2024-01-27T01:50:14;2.20;;;2.00;;
11042;SDS011;5574;48.786;10.120;2024-01-27T01:52:41;4.77;;;2.00;;
11042;SDS011;5574;48.786;10.120;2024-01-27T01:55:08;3.13;;;1.80;;
11042;SDS011;5574;48.786;10.120;2024-01-27T01:57:35;2.40;;;2.10;;
11042;SDS011;5574;48.786;10.120;2024-01-27T02:00:02;6.03;;;1.97;;
11042;SDS011;5574;48.786;10.120;2024-01-27T02:02:30;2.17;;;1.90;;
11042;SDS011;5574;48.786;10.120;2024-01-27T02:04:57;2.87;;;2.17;;
11042;SDS011;5574;48.786;10.120;2024-01-27T02:07:24;2.40;;;1.97;;
11042;SDS011;5574;48.786;10.120;2024-01-27T02:09:51;2.40;;;2.10;;
11042;SDS011;5574;48.786;10.120;2024-01-27T02:12:17;2.10;;;1.90;;
11042;SDS011;5574;48.786;10.120;2024-01-27T02:14:44;1.80;;;1.70;;
11042;SDS011;5574;48.786;10.120;2024-01-27T02:17:11;4.47;;;2.63;;
11042;SDS011;5574;48.786;10.120;2024-01-27T02:19:39;2.20;;;1.90;;
11042;SDS011;5574;48.786;10.120;2024-01-27T02:22:05;4.77;;;2.33;;
11042;SDS011;5574;48.786;10.120;2024-01-27T02:24:33;2.63;;;2.40;;
11042;SDS011;5574;48.786;10.120;2024-01-27T02:27:00;2.93;;;2.00;;
11042;SDS011;5574;48.786;10.120;2024-01-27T02:29:27;3.23;;;1.97;;
11042;SDS011;5574;48.786;10.120;2024-01-27T02:31:53;2.80;;;1.77;;
11042;SDS011;5574;48.786;10.120;2024-01-27T02:34:20;2.97;;;2.20;;
11042;SDS011;5574;48.786;10.120;2024-01-27T02:36:47;3.20;;;2.20;;
11042;SDS011;5574;48.786;10.120;2024-01-27T02:39:14;3.57;;;2.50;;
11042;SDS011;5574;48.786;10.120;2024-01-27T02:41:42;3.23;;;2.33;;
11042;SDS011;5574;48.786;10.120;2024-01-27T02:44:09;5.03;;;2.47;;
11042;SDS011;5574;48.786;10.120;2024-01-27T02:46:35;3.63;;;1.67;;
11042;SDS011;5574;48.786;10.120;2024-01-27T02:49:02;4.33;;;2.30;;
11042;SDS011;5574;48.786;10.120;2024-01-27T02:51:29;3.23;;;2.00;;
11042;SDS011;5574;48.786;10.120;2024-01-27T02:53:55;2.60;;;2.00;;
11042;SDS011;5574;48.786;10.120;2024-01-27T02:56:22;2.90;;;1.70;;
11042;SDS011;5574;48.786;10.120;2024-01-27T02:58:50;3.40;;;2.23;;
11042;SDS011;5574;48.786;10.120;2024-01-27T03:01:16;2.43;;;1.57;;
11042;SDS011;5574;48.786;10.120;2024-01-27T03:03:43;2.83;;;1.73;;
11042;SDS011;5574;48.786;10.120;2024-01-27T03:06:10;2.93;;;1.83;;
11042;SDS011;5574;48.786;10.120;2024-01-27T03:08:36;3.17;;;1.83;;
11042;SDS011;5574;48.786;10.120;2024-01-27T03:11:03;5.37;;;2.63;;
11042;SDS011;5574;48.786;10.120;2024-01-27T03:13:30;7.73;;;4.83;;
11042;SDS011;5574;48.786;10.120;2024-01-27T03:15:58;4.83;;;3.80;;
11042;SDS011;5574;48.786;10.120;2024-01-27T03:18:25;5.53;;;3.40;;
11042;SDS011;5574;48.786;10.120;2024-01-27T03:20:51;4.43;;;3.00;;
11042;SDS011;5574;48.786;10.120;2024-01-27T03:23:18;6.50;;;2.73;;
11042;SDS011;5574;48.786;10.120;2024-01-27T03:25:45;4.33;;;2.70;;
11042;SDS011;5574;48.786;10.120;2024-01-27T03:28:12;4.17;;;2.10;;
11042;SDS011;5574;48.786;10.120;2024-01-27T03:30:38;2.80;;;2.07;;
11042;SDS011;5574;48.786;10.120;2024-01-27T03:33:06;2.37;;;2.00;;
11042;SDS011;5574;48.786;10.120;2024-01-27T03:35:35;2.50;;;1.90;;
11042;SDS011;5574;48.786;10.120;2024-01-27T03:38:02;4.13;;;1.93;;
11042;SDS011;5574;48.786;10.120;2024-01-27T03:40:29;2.50;;;2.13;;
11042;SDS011;5574;48.786;10.120;2024-01-27T03:42:56;3.47;;;2.03;;
11042;SDS011;5574;48.786;10.120;2024-01-27T03:45:23;3.10;;;1.93;;
11042;SDS011;5574;48.786;10.120;2024-01-27T03:47:49;5.73;;;2.23;;
11042;SDS011;5574;48.786;10.120;2024-01-27T03:50:17;3.00;;;2.00;;
11042;SDS011;5574;48.786;10.120;2024-01-27T03:52:44;4.37;;;2.30;;
11042;SDS011;5574;48.786;10.120;2024-01-27T03:55:11;4.47;;;2.10;;
11042;SDS011;5574;48.786;10.120;2024-01-27T03:57:37;4.87;;;2.40;;
11042;SDS011;5574;48.786;10.120;2024-01-27T04:00:04;3.97;;;2.70;;
11042;SDS011;5574;48.786;10.120;2024-01-27T04:02:32;4.37;;;2.50;;
11042;SDS011;5574;48.786;10.120;2024-01-27T04:04:59;4.10;;;2.20;;
11042;SDS011;5574;48.786;10.120;2024-01-27T04:07:27;2.93;;;1.73;;
11042;SDS011;5574;48.786;10.120;2024-01-27T04:09:53;3.73;;;2.00;;
11042;SDS011;5574;48.786;10.120;2024-01-27T04:12:20;2.93;;;2.20;;
11042;SDS011;5574;48.786;10.120;2024-01-27T04:14:47;3.70;;;2.07;;
11042;SDS011;5574;48.786;10.120;2024-01-27T04:17:13;2.10;;;1.87;;
11042;SDS011;5574;48.786;10.120;2024-01-27T04:19:40;3.93;;;2.10;;
11042;SDS011;5574;48.786;10.120;2024-01-27T04:22:07;2.47;;;2.00;;
11042;SDS011;5574;48.786;10.120;2024-01-27T04:24:35;1.80;;;1.70;;
11042;SDS011;5574;48.786;10.120;2024-01-27T04:27:01;2.27;;;1.70;;
11042;SDS011;5574;48.786;10.120;2024-01-27T04:29:28;2.53;;;1.80;;
11042;SDS011;5574;48.786;10.120;2024-01-27T04:31:55;4.20;;;1.80;;
11042;SDS011;5574;48.786;10.120;2024-01-27T04:34:21;1.83;;;1.73;;
11042;SDS011;5574;48.786;10.120;2024-01-27T04:36:48;4.30;;;2.13;;
11042;SDS011;5574;48.786;10.120;2024-01-27T04:39:15;2.87;;;2.00;;
11042;SDS011;5574;48.786;10.120;2024-01-27T04:41:43;3.23;;;2.20;;
11042;SDS011;5574;48.786;10.120;2024-01-27T04:44:10;2.47;;;2.20;;
11042;SDS011;5574;48.786;10.120;2024-01-27T04:46:37;3.70;;;1.90;;
11042;SDS011;5574;48.786;10.120;2024-01-27T04:49:03;2.60;;;1.80;;
11042;SDS011;5574;48.786;10.120;2024-01-27T04:51:30;2.07;;;1.83;;
11042;SDS011;5574;48.786;10.120;2024-01-27T04:53:57;2.57;;;2.00;;
11042;SDS011;5574;48.786;10.120;2024-01-27T04:56:23;2.77;;;1.90;;
11042;SDS011;5574;48.786;10.120;2024-01-27T04:58:51;2.23;;;1.80;;
11042;SDS011;5574;48.786;10.120;2024-01-27T05:01:18;2.20;;;2.00;;
11042;SDS011;5574;48.786;10.120;2024-01-27T05:03:46;2.63;;;1.80;;
11042;SDS011;5574;48.786;10.120;2024-01-27T05:06:12;2.87;;;1.80;;
11042;SDS011;5574;48.786;10.120;2024-01-27T05:08:39;2.07;;;1.87;;
11042;SDS011;5574;48.786;10.120;2024-01-27T05:11:06;2.70;;;2.07;;
11042;SDS011;5574;48.786;10.120;2024-01-27T05:13:33;2.20;;;2.00;;
11042;SDS011;5574;48.786;10.120;2024-01-27T05:16:01;4.37;;;2.10;;
11042;SDS011;5574;48.786;10.120;2024-01-27T05:18:27;3.13;;;2.10;;
11042;SDS011;5574;48.786;10.120;2024-01-27T05:20:54;2.83;;;2.07;;
11042;SDS011;5574;48.786;10.120;2024-01-27T05:23:21;3.27;;;2.10;;
11042;SDS011;5574;48.786;10.120;2024-01-27T05:25:48;4.17;;;2.03;;
11042;SDS011;5574;48.786;10.120;2024-01-27T05:28:15;3.30;;;2.33;;
11042;SDS011;5574;48.786;10.120;2024-01-27T05:30:42;3.87;;;2.40;;
11042;SDS011;5574;48.786;10.120;2024-01-27T05:33:11;2.30;;;2.07;;
11042;SDS011;5574;48.786;10.120;2024-01-27T05:35:37;3.20;;;2.13;;
11042;SDS011;5574;48.786;10.120;2024-01-27T05:38:04;2.90;;;2.03;;
11042;SDS011;5574;48.786;10.120;2024-01-27T05:40:31;3.33;;;2.20;;
11042;SDS011;5574;48.786;10.120;2024-01-27T05:42:57;2.67;;;2.00;;
11042;SDS011;5574;48.786;10.120;2024-01-27T05:45:24;4.37;;;2.17;;
11042;SDS011;5574;48.786;10.120;2024-01-27T05:47:51;5.40;;;2.30;;
11042;SDS011;5574;48.786;10.120;2024-01-27T05:50:19;4.17;;;2.23;;
11042;SDS011;5574;48.786;10.120;2024-01-27T05:52:46;4.53;;;1.90;;
11042;SDS011;5574;48.786;10.120;2024-01-27T05:55:12;3.53;;;2.07;;
11042;SDS011;5574;48.786;10.120;2024-01-27T05:57:41;3.60;;;1.83;;
11042;SDS011;5574;48.786;10.120;2024-01-27T06:00:08;2.90;;;2.20;;
11042;SDS011;5574;48.786;10.120;2024-01-27T06:02:36;3.07;;;2.10;;
11042;SDS011;5574;48.786;10.120;2024-01-27T06:05:02;3.80;;;2.00;;
11042;SDS011;5574;48.786;10.120;2024-01-27T06:07:31;2.57;;;1.97;;
11042;SDS011;5574;48.786;10.120;2024-01-27T06:09:57;2.53;;;1.87;;
11042;SDS011;5574;48.786;10.120;2024-01-27T06:12:24;3.53;;;2.20;;
11042;SDS011;5574;48.786;10.120;2024-01-27T06:14:51;3.03;;;2.00;;
11042;SDS011;5574;48.786;10.120;2024-01-27T06:17:17;3.13;;;1.80;;
11042;SDS011;5574;48.786;10.120;2024-01-27T06:19:44;3.13;;;1.90;;
11042;SDS011;5574;48.786;10.120;2024-01-27T06:22:11;2.57;;;2.17;;
11042;SDS011;5574;48.786;10.120;2024-01-27T06:24:42;2.77;;;2.20;;
11042;SDS011;5574;48.786;10.120;2024-01-27T06:27:09;8.73;;;5.53;;
11042;SDS011;5574;48.786;10.120;2024-01-27T06:29:35;7.27;;;4.17;;
11042;SDS011;5574;48.786;10.120;2024-01-27T06:32:02;3.83;;;2.50;;
11042;SDS011;5574;48.786;10.120;2024-01-27T06:34:29;5.17;;;2.73;;
11042;SDS011;5574;48.786;10.120;2024-01-27T06:36:56;4.47;;;2.50;;
11042;SDS011;5574;48.786;10.120;2024-01-27T06:39:22;3.63;;;2.40;;
11042;SDS011;5574;48.786;10.120;2024-01-27T06:41:50;3.40;;;2.80;;
11042;SDS011;5574;48.786;10.120;2024-01-27T06:44:17;4.13;;;2.53;;
11042;SDS011;5574;48.786;10.120;2024-01-27T06:46:43;5.10;;;2.83;;
11042;SDS011;5574;48.786;10.120;2024-01-27T06:49:14;3.73;;;2.20;;
11042;SDS011;5574;48.786;10.120;2024-01-27T06:51:41;3.77;;;2.50;;
11042;SDS011;5574;48.786;10.120;2024-01-27T06:54:09;4.13;;;2.50;;
11042;SDS011;5574;48.786;10.120;2024-01-27T06:56:36;4.40;;;2.40;;
11042;SDS011;5574;48.786;10.120;2024-01-27T06:59:04;4.20;;;2.40;;
11042;SDS011;5574;48.786;10.120;2024-01-27T07:01:31;3.20;;;2.20;;
11042;SDS011;5574;48.786;10.120;2024-01-27T07:03:58;3.27;;;2.40;;
11042;SDS011;5574;48.786;10.120;2024-01-27T07:06:24;4.17;;;2.50;;
11042;SDS011;5574;48.786;10.120;2024-01-27T07:08:51;4.23;;;2.37;;
11042;SDS011;5574;48.786;10.120;2024-01-27T07:11:18;2.80;;;2.40;;
11042;SDS011;5574;48.786;10.120;2024-01-27T07:13:44;5.33;;;2.90;;
11042;SDS011;5574;48.786;10.120;2024-01-27T07:16:12;8.33;;;4.20;;
11042;SDS011;5574;48.786;10.120;2024-01-27T07:18:39;6.67;;;4.40;;
11042;SDS011;5574;48.786;10.120;2024-01-27T07:21:06;7.43;;;4.80;;
11042;SDS011;5574;48.786;10.120;2024-01-27T07:23:32;8.37;;;5.73;;
11042;SDS011;5574;48.786;10.120;2024-01-27T07:26:00;8.07;;;4.93;;
11042;SDS011;5574;48.786;10.120;2024-01-27T07:28:28;4.93;;;3.50;;
11042;SDS011;5574;48.786;10.120;2024-01-27T07:30:55;5.80;;;2.53;;
11042;SDS011;5574;48.786;10.120;2024-01-27T07:33:23;3.67;;;2.30;;
11042;SDS011;5574;48.786;10.120;2024-01-27T07:35:50;5.60;;;2.60;;
11042;SDS011;5574;48.786;10.120;2024-01-27T07:38:17;5.13;;;3.00;;
11042;SDS011;5574;48.786;10.120;2024-01-27T07:40:43;3.57;;;2.77;;
11042;SDS011;5574;48.786;10.120;2024-01-27T07:43:10;5.67;;;3.30;;
11042;SDS011;5574;48.786;10.120;2024-01-27T07:45:37;5.07;;;3.27;;
11042;SDS011;5574;48.786;10.120;2024-01-27T07:48:04;5.97;;;3.97;;
11042;SDS011;5574;48.786;10.120;2024-01-27T07:50:32;4.93;;;4.10;;
11042;SDS011;5574;48.786;10.120;2024-01-27T07:52:59;6.60;;;4.40;;
11042;SDS011;5574;48.786;10.120;2024-01-27T07:55:27;6.57;;;3.93;;
11042;SDS011;5574;48.786;10.120;2024-01-27T07:57:53;8.90;;;4.50;;
11042;SDS011;5574;48.786;10.120;2024-01-27T08:00:20;5.10;;;3.27;;
11042;SDS011;5574;48.786;10.120;2024-01-27T08:02:47;4.27;;;2.50;;
11042;SDS011;5574;48.786;10.120;2024-01-27T08:05:13;3.83;;;2.97;;
11042;SDS011;5574;48.786;10.120;2024-01-27T08:07:42;6.83;;;4.00;;
11042;SDS011;5574;48.786;10.120;2024-01-27T08:10:08;5.47;;;3.23;;
11042;SDS011;5574;48.786;10.120;2024-01-27T08:12:36;6.23;;;3.10;;
11042;SDS011;5574;48.786;10.120;2024-01-27T08:15:03;3.00;;;2.37;;
11042;SDS011;5574;48.786;10.120;2024-01-27T08:17:31;4.73;;;2.70;;
11042;SDS011;5574;48.786;10.120;2024-01-27T08:19:57;2.83;;;2.37;;
11042;SDS011;5574;48.786;10.120;2024-01-27T08:22:24;4.53;;;2.70;;
11042;SDS011;5574;48.786;10.120;2024-01-27T08:24:52;4.60;;;3.00;;
11042;SDS011;5574;48.786;10.120;2024-01-27T08:27:19;5.33;;;3.33;;
11042;SDS011;5574;48.786;10.120;2024-01-27T08:29:45;4.00;;;2.63;;
11042;SDS011;5574;48.786;10.120;2024-01-27T08:32:12;6.20;;;3.37;;
11042;SDS011;5574;48.786;10.120;2024-01-27T08:34:39;6.33;;;3.10;;
11042;SDS011;5574;48.786;10.120;2024-01-27T08:37:13;3.83;;;3.00;;
11042;SDS011;5574;48.786;10.120;2024-01-27T08:39:41;5.03;;;3.53;;
11042;SDS011;5574;48.786;10.120;2024-01-27T08:42:09;5.37;;;3.20;;
11042;SDS011;5574;48.786;10.120;2024-01-27T08:44:36;6.10;;;3.60;;
11042;SDS011;5574;48.786;10.120;2024-01-27T08:47:03;5.60;;;3.40;;
11042;SDS011;5574;48.786;10.120;2024-01-27T08:49:30;9.40;;;4.77;;
11042;SDS011;5574;48.786;10.120;2024-01-27T08:51:57;8.33;;;4.70;;
11042;SDS011;5574;48.786;10.120;2024-01-27T08:54:23;6.67;;;5.53;;
11042;SDS011;5574;48.786;10.120;2024-01-27T08:56:50;4.07;;;2.83;;
11042;SDS011;5574;48.786;10.120;2024-01-27T08:59:19;4.87;;;2.40;;
11042;SDS011;5574;48.786;10.120;2024-01-27T09:01:45;4.63;;;2.60;;
11042;SDS011;5574;48.786;10.120;2024-01-27T09:04:12;6.33;;;3.30;;
11042;SDS011;5574;48.786;10.120;2024-01-27T09:06:39;3.80;;;2.20;;
11042;SDS011;5574;48.786;10.120;2024-01-27T09:09:05;6.37;;;2.70;;
11042;SDS011;5574;48.786;10.120;2024-01-27T09:11:33;4.70;;;2.30;;
11042;SDS011;5574;48.786;10.120;2024-01-27T09:13:59;4.57;;;2.60;;
11042;SDS011;5574;48.786;10.120;2024-01-27T09:16:27;4.37;;;2.40;;
11042;SDS011;5574;48.786;10.120;2024-01-27T09:18:54;5.83;;;2.50;;
11042;SDS011;5574;48.786;10.120;2024-01-27T09:21:21;7.00;;;2.90;;
11042;SDS011;5574;48.786;10.120;2024-01-27T09:23:53;5.23;;;2.90;;
11042;SDS011;5574;48.786;10.120;2024-01-27T09:26:19;5.90;;;2.77;;
11042;SDS011;5574;48.786;10.120;2024-01-27T09:28:48;5.97;;;2.80;;
11042;SDS011;5574;48.786;10.120;2024-01-27T09:31:19;5.40;;;2.60;;
11042;SDS011;5574;48.786;10.120;2024-01-27T09:33:48;7.30;;;2.80;;
11042;SDS011;5574;48.786;10.120;2024-01-27T09:36:15;6.10;;;2.60;;
11042;SDS011;5574;48.786;10.120;2024-01-27T09:38:42;4.77;;;2.73;;
11042;SDS011;5574;48.786;10.120;2024-01-27T09:41:08;3.97;;;2.60;;
11042;SDS011;5574;48.786;10.120;2024-01-27T09:43:36;4.37;;;2.50;;
11042;SDS011;5574;48.786;10.120;2024-01-27T09:46:07;5.67;;;2.40;;
11042;SDS011;5574;48.786;10.120;2024-01-27T09:48:34;7.30;;;2.13;;
11042;SDS011;5574;48.786;10.120;2024-01-27T09:51:03;3.90;;;2.30;;
11042;SDS011;5574;48.786;10.120;2024-01-27T09:53:31;6.07;;;2.40;;
11042;SDS011;5574;48.786;10.120;2024-01-27T09:55:58;5.10;;;2.50;;
11042;SDS011;5574;48.786;10.120;2024-01-27T09:58:26;4.73;;;2.43;;
11042;SDS011;5574;48.786;10.120;2024-01-27T10:00:54;5.83;;;2.67;;
11042;SDS011;5574;48.786;10.120;2024-01-27T10:03:23;6.07;;;2.60;;
11042;SDS011;5574;48.786;10.120;2024-01-27T10:05:52;5.73;;;2.40;;
11042;SDS011;5574;48.786;10.120;2024-01-27T10:08:21;6.87;;;2.90;;
11042;SDS011;5574;48.786;10.120;2024-01-27T10:10:48;3.23;;;2.20;;
11042;SDS011;5574;48.786;10.120;2024-01-27T10:13:19;4.67;;;2.47;;
11042;SDS011;5574;48.786;10.120;2024-01-27T10:15:58;5.27;;;2.50;;
11042;SDS011;5574;48.786;10.120;2024-01-27T10:18:25;7.40;;;2.70;;
11042;SDS011;5574;48.786;10.120;2024-01-27T10:20:52;6.67;;;2.60;;
11042;SDS011;5574;48.786;10.120;2024-01-27T10:23:20;6.20;;;2.67;;
11042;SDS011;5574;48.786;10.120;2024-01-27T10:25:47;4.23;;;2.93;;
11042;SDS011;5574;48.786;10.120;2024-01-27T10:28:13;3.40;;;2.20;;
11042;SDS011;5574;48.786;10.120;2024-01-27T10:30:40;5.57;;;2.50;;
11042;SDS011;5574;48.786;10.120;2024-01-27T10:33:08;5.47;;;2.23;;
11042;SDS011;5574;48.786;10.120;2024-01-27T10:35:35;4.83;;;2.27;;
11042;SDS011;5574;48.786;10.120;2024-01-27T10:38:02;5.77;;;2.40;;
11042;SDS011;5574;48.786;10.120;2024-01-27T10:40:30;4.67;;;2.40;;
11042;SDS011;5574;48.786;10.120;2024-01-27T10:43:00;4.47;;;2.10;;
11042;SDS011;5574;48.786;10.120;2024-01-27T10:45:27;3.83;;;2.33;;
11042;SDS011;5574;48.786;10.120;2024-01-27T10:47:59;4.93;;;2.20;;
11042;SDS011;5574;48.786;10.120;2024-01-27T10:50:28;5.80;;;2.00;;
11042;SDS011;5574;48.786;10.120;2024-01-27T10:52:55;4.63;;;2.10;;
11042;SDS011;5574;48.786;10.120;2024-01-27T10:55:24;6.10;;;2.27;;
11042;SDS011;5574;48.786;10.120;2024-01-27T10:57:53;3.87;;;2.13;;
11042;SDS011;5574;48.786;10.120;2024-01-27T11:00:22;3.83;;;1.80;;
11042;SDS011;5574;48.786;10.120;2024-01-27T11:02:51;3.77;;;1.90;;
11042;SDS011;5574;48.786;10.120;2024-01-27T11:05:20;4.17;;;1.90;;
11042;SDS011;5574;48.786;10.120;2024-01-27T11:07:48;5.57;;;1.90;;
11042;SDS011;5574;48.786;10.120;2024-01-27T11:10:17;5.63;;;2.50;;
11042;SDS011;5574;48.786;10.120;2024-01-27T11:12:43;4.70;;;2.60;;
11042;SDS011;5574;48.786;10.120;2024-01-27T11:15:13;5.40;;;2.30;;
11042;SDS011;5574;48.786;10.120;2024-01-27T11:17:40;4.43;;;2.40;;
11042;SDS011;5574;48.786;10.120;2024-01-27T11:20:07;5.53;;;2.70;;
11042;SDS011;5574;48.786;10.120;2024-01-27T11:22:36;6.63;;;3.57;;
11042;SDS011;5574;48.786;10.120;2024-01-27T11:25:07;6.13;;;3.03;;
11042;SDS011;5574;48.786;10.120;2024-01-27T11:27:40;4.17;;;2.40;;
11042;SDS011;5574;48.786;10.120;2024-01-27T11:30:23;5.27;;;2.60;;
11042;SDS011;5574;48.786;10.120;2024-01-27T11:33:00;7.23;;;2.20;;
11042;SDS011;5574;48.786;10.120;2024-01-27T11:35:28;5.17;;;2.50;;
11042;SDS011;5574;48.786;10.120;2024-01-27T11:37:55;3.30;;;2.30;;
11042;SDS011;5574;48.786;10.120;2024-01-27T11:40:21;3.97;;;2.07;;
11042;SDS011;5574;48.786;10.120;2024-01-27T11:42:54;5.37;;;2.37;;
11042;SDS011;5574;48.786;10.120;2024-01-27T11:45:22;4.30;;;2.70;;
11042;SDS011;5574;48.786;10.120;2024-01-27T11:47:51;6.90;;;2.80;;
11042;SDS011;5574;48.786;10.120;2024-01-27T11:50:17;5.30;;;2.10;;
11042;SDS011;5574;48.786;10.120;2024-01-27T11:52:45;3.60;;;2.10;;
11042;SDS011;5574;48.786;10.120;2024-01-27T11:55:12;6.77;;;2.30;;
11042;SDS011;5574;48.786;10.120;2024-01-27T11:57:40;4.27;;;2.23;;
11042;SDS011;5574;48.786;10.120;2024-01-27T12:00:07;4.13;;;1.87;;
11042;SDS011;5574;48.786;10.120;2024-01-27T12:02:35;5.93;;;2.40;;
11042;SDS011;5574;48.786;10.120;2024-01-27T12:05:04;3.77;;;2.10;;
11042;SDS011;5574;48.786;10.120;2024-01-27T12:07:31;3.80;;;2.40;;
11042;SDS011;5574;48.786;10.120;2024-01-27T12:09:58;4.20;;;2.50;;
11042;SDS011;5574;48.786;10.120;2024-01-27T12:12:25;3.90;;;2.03;;
11042;SDS011;5574;48.786;10.120;2024-01-27T12:14:51;3.63;;;1.70;;
11042;SDS011;5574;48.786;10.120;2024-01-27T12:17:18;4.03;;;2.20;;
11042;SDS011;5574;48.786;10.120;2024-01-27T12:19:46;3.13;;;2.00;;
11042;SDS011;5574;48.786;10.120;2024-01-27T12:22:22;6.93;;;2.53;;
11042;SDS011;5574;48.786;10.120;2024-01-27T12:24:50;3.90;;;2.03;;
11042;SDS011;5574;48.786;10.120;2024-01-27T12:27:17;3.33;;;1.77;;
11042;SDS011;5574;48.786;10.120;2024-01-27T12:29:45;5.80;;;2.40;;
11042;SDS011;5574;48.786;10.120;2024-01-27T12:32:14;6.53;;;2.37;;
11042;SDS011;5574;48.786;10.120;2024-01-27T12:34:40;4.27;;;2.00;;
11042;SDS011;5574;48.786;10.120;2024-01-27T12:37:07;5.30;;;1.60;;
11042;SDS011;5574;48.786;10.120;2024-01-27T12:39:38;3.07;;;1.23;;
11042;SDS011;5574;48.786;10.120;2024-01-27T12:42:09;3.23;;;2.00;;
11042;SDS011;5574;48.786;10.120;2024-01-27T12:44:36;3.80;;;1.50;;
11042;SDS011;5574;48.786;10.120;2024-01-27T12:47:02;4.17;;;1.30;;
11042;SDS011;5574;48.786;10.120;2024-01-27T12:49:30;2.77;;;1.80;;
11042;SDS011;5574;48.786;10.120;2024-01-27T12:51:56;1.93;;;1.30;;
11042;SDS011;5574;48.786;10.120;2024-01-27T12:54:23;3.50;;;1.57;;
11042;SDS011;5574;48.786;10.120;2024-01-27T12:56:51;3.47;;;1.53;;
11042;SDS011;5574;48.786;10.120;2024-01-27T12:59:18;1.90;;;1.23;;
11042;SDS011;5574;48.786;10.120;2024-01-27T13:01:45;2.10;;;1.33;;
11042;SDS011;5574;48.786;10.120;2024-01-27T13:04:11;1.80;;;1.10;;
11042;SDS011;5574;48.786;10.120;2024-01-27T13:06:39;4.03;;;1.33;;
11042;SDS011;5574;48.786;10.120;2024-01-27T13:09:06;2.40;;;1.33;;
11042;SDS011;5574;48.786;10.120;2024-01-27T13:11:36;2.83;;;1.20;;
11042;SDS011;5574;48.786;10.120;2024-01-27T13:14:04;1.43;;;1.17;;
11042;SDS011;5574;48.786;10.120;2024-01-27T13:16:31;4.63;;;1.30;;
11042;SDS011;5574;48.786;10.120;2024-01-27T13:18:58;4.33;;;1.30;;
11042;SDS011;5574;48.786;10.120;2024-01-27T13:21:25;1.47;;;1.10;;
11042;SDS011;5574;48.786;10.120;2024-01-27T13:23:51;2.17;;;1.27;;
11042;SDS011;5574;48.786;10.120;2024-01-27T13:26:18;3.57;;;1.30;;
11042;SDS011;5574;48.786;10.120;2024-01-27T13:28:45;3.43;;;1.27;;
11042;SDS011;5574;48.786;10.120;2024-01-27T13:31:14;2.70;;;1.40;;
11042;SDS011;5574;48.786;10.120;2024-01-27T13:33:43;3.13;;;1.30;;
11042;SDS011;5574;48.786;10.120;2024-01-27T13:36:09;2.97;;;1.50;;
11042;SDS011;5574;48.786;10.120;2024-01-27T13:38:36;3.90;;;1.63;;
11042;SDS011;5574;48.786;10.120;2024-01-27T13:41:03;5.80;;;2.53;;
11042;SDS011;5574;48.786;10.120;2024-01-27T13:43:29;3.40;;;1.50;;
11042;SDS011;5574;48.786;10.120;2024-01-27T13:45:56;2.77;;;1.60;;
11042;SDS011;5574;48.786;10.120;2024-01-27T13:48:24;3.97;;;1.27;;
11042;SDS011;5574;48.786;10.120;2024-01-27T13:50:52;5.03;;;3.33;;
11042;SDS011;5574;48.786;10.120;2024-01-27T13:53:19;4.40;;;1.67;;
11042;SDS011;5574;48.786;10.120;2024-01-27T13:55:45;2.50;;;2.00;;
11042;SDS011;5574;48.786;10.120;2024-01-27T13:58:12;2.87;;;1.27;;
11042;SDS011;5574;48.786;10.120;2024-01-27T14:00:39;1.77;;;1.50;;
11042;SDS011;5574;48.786;10.120;2024-01-27T14:03:05;4.03;;;1.90;;
11042;SDS011;5574;48.786;10.120;2024-01-27T14:05:33;3.80;;;2.00;;
11042;SDS011;5574;48.786;10.120;2024-01-27T14:08:00;4.67;;;2.07;;
11042;SDS011;5574;48.786;10.120;2024-01-27T14:10:28;3.57;;;1.60;;
11042;SDS011;5574;48.786;10.120;2024-01-27T14:12:55;4.90;;;2.13;;
11042;SDS011;5574;48.786;10.120;2024-01-27T14:15:21;2.70;;;1.80;;
11042;SDS011;5574;48.786;10.120;2024-01-27T14:17:48;7.57;;;2.00;;
11042;SDS011;5574;48.786;10.120;2024-01-27T14:20:15;4.00;;;1.90;;
11042;SDS011;5574;48.786;10.120;2024-01-27T14:22:43;2.80;;;1.53;;
11042;SDS011;5574;48.786;10.120;2024-01-27T14:25:10;2.90;;;1.40;;
11042;SDS011;5574;48.786;10.120;2024-01-27T14:27:36;3.03;;;1.73;;
11042;SDS011;5574;48.786;10.120;2024-01-27T14:30:03;2.97;;;1.70;;
11042;SDS011;5574;48.786;10.120;2024-01-27T14:32:31;3.17;;;1.80;;
11042;SDS011;5574;48.786;10.120;2024-01-27T14:34:57;4.63;;;1.80;;
11042;SDS011;5574;48.786;10.120;2024-01-27T14:37:24;7.80;;;2.57;;
11042;SDS011;5574;48.786;10.120;2024-01-27T14:39:52;3.90;;;2.40;;
11042;SDS011;5574;48.786;10.120;2024-01-27T14:42:20;3.97;;;2.40;;
11042;SDS011;5574;48.786;10.120;2024-01-27T14:44:47;4.83;;;2.40;;
11042;SDS011;5574;48.786;10.120;2024-01-27T14:47:14;5.53;;;3.30;;
11042;SDS011;5574;48.786;10.120;2024-01-27T14:49:41;4.33;;;2.77;;